sensor_id;sensor_type;location;lat;lon;timestamp;temperature;humidity
13472;DHT22;6808;49.444;11.034;2023-04-15T00:01:24;7.50;99.90
13472;DHT22;6808;49.444;11.034;2023-04-15T00:03:51;7.50;99.90
13472;DHT22;6808;49.444;11.034;2023-04-15T00:06:18;7.40;99.90
13472;DHT22;6808;49.444;11.034;2023-04-15T00:08:47;7.40;99.90
13472;DHT22;6808;49.444;11.034;2023-04-15T00:11:13;7.40;99.90
13472;DHT22;6808;49.444;11.034;2023-04-15T00:13:39;7.40;99.90
13472;DHT22;6808;49.444;11.034;2023-04-15T00:16:05;7.40;99.90
13472;DHT22;6808;49.444;11.034;2023-04-15T00:18:32;7.40;99.90
13472;DHT22;6808;49.444;11.034;2023-04-15T00:20:58;7.30;99.90
13472;DHT22;6808;49.444;11.034;2023-04-15T00:23:24;7.40;99.90
13472;DHT22;6808;49.444;11.034;2023-04-15T00:25:50;7.30;99.90
13472;DHT22;6808;49.444;11.034;2023-04-15T00:28:16;7.30;99.90
13472;DHT22;6808;49.444;11.034;2023-04-15T00:30:42;7.30;99.90
13472;DHT22;6808;49.444;11.034;2023-04-15T00:33:08;7.30;99.90
13472;DHT22;6808;49.444;11.034;2023-04-15T00:35:34;7.40;99.90
13472;DHT22;6808;49.444;11.034;2023-04-15T00:38:01;7.40;99.90
13472;DHT22;6808;49.444;11.034;2023-04-15T00:40:26;7.30;99.90
13472;DHT22;6808;49.444;11.034;2023-04-15T00:42:52;7.30;99.90
13472;DHT22;6808;49.444;11.034;2023-04-15T00:45:17;7.30;99.90
13472;DHT22;6808;49.444;11.034;2023-04-15T00:47:44;7.30;99.90
13472;DHT22;6808;49.444;11.034;2023-04-15T00:50:10;7.30;99.90
13472;DHT22;6808;49.444;11.034;2023-04-15T00:52:37;7.30;99.90
13472;DHT22;6808;49.444;11.034;2023-04-15T00:55:03;7.30;99.90
13472;DHT22;6808;49.444;11.034;2023-04-15T00:57:29;7.30;99.90
13472;DHT22;6808;49.444;11.034;2023-04-15T00:59:55;7.30;99.90
13472;DHT22;6808;49.444;11.034;2023-04-15T01:02:22;7.30;99.90
13472;DHT22;6808;49.444;11.034;2023-04-15T01:04:48;7.30;99.90
13472;DHT22;6808;49.444;11.034;2023-04-15T01:07:14;7.30;99.90
13472;DHT22;6808;49.444;11.034;2023-04-15T01:09:40;7.20;99.90
13472;DHT22;6808;49.444;11.034;2023-04-15T01:12:06;7.20;99.90
13472;DHT22;6808;49.444;11.034;2023-04-15T01:14:33;7.20;99.90
13472;DHT22;6808;49.444;11.034;2023-04-15T01:16:58;7.20;99.90
13472;DHT22;6808;49.444;11.034;2023-04-15T01:19:24;7.20;99.90
13472;DHT22;6808;49.444;11.034;2023-04-15T01:21:50;7.20;99.90
13472;DHT22;6808;49.444;11.034;2023-04-15T01:24:17;7.10;99.90
13472;DHT22;6808;49.444;11.034;2023-04-15T01:26:43;7.10;99.90
13472;DHT22;6808;49.444;11.034;2023-04-15T01:29:09;7.10;99.90
13472;DHT22;6808;49.444;11.034;2023-04-15T01:31:35;7.10;99.90
13472;DHT22;6808;49.444;11.034;2023-04-15T01:34:00;7.10;99.90
13472;DHT22;6808;49.444;11.034;2023-04-15T01:36:26;7.10;99.90
13472;DHT22;6808;49.444;11.034;2023-04-15T01:38:52;7.10;99.90
13472;DHT22;6808;49.444;11.034;2023-04-15T01:41:27;7.10;99.90
13472;DHT22;6808;49.444;11.034;2023-04-15T01:43:53;7.10;99.90
13472;DHT22;6808;49.444;11.034;2023-04-15T01:46:19;7.20;99.90
13472;DHT22;6808;49.444;11.034;2023-04-15T01:48:45;7.20;99.90
13472;DHT22;6808;49.444;11.034;2023-04-15T01:51:10;7.10;99.90
13472;DHT22;6808;49.444;11.034;2023-04-15T01:53:36;7.10;99.90
13472;DHT22;6808;49.444;11.034;2023-04-15T01:56:02;7.10;99.90
13472;DHT22;6808;49.444;11.034;2023-04-15T01:58:27;7.10;99.90
13472;DHT22;6808;49.444;11.034;2023-04-15T02:00:53;7.20;99.90
13472;DHT22;6808;49.444;11.034;2023-04-15T02:03:18;7.20;99.90
13472;DHT22;6808;49.444;11.034;2023-04-15T02:05:44;7.20;99.90
13472;DHT22;6808;49.444;11.034;2023-04-15T02:08:10;7.20;99.90
13472;DHT22;6808;49.444;11.034;2023-04-15T02:10:35;7.10;99.90
13472;DHT22;6808;49.444;11.034;2023-04-15T02:13:01;7.10;99.90
13472;DHT22;6808;49.444;11.034;2023-04-15T02:15:26;7.10;99.90
13472;DHT22;6808;49.444;11.034;2023-04-15T02:17:52;7.10;99.90
13472;DHT22;6808;49.444;11.034;2023-04-15T02:20:20;7.10;99.90
13472;DHT22;6808;49.444;11.034;2023-04-15T02:22:46;7.10;99.90
13472;DHT22;6808;49.444;11.034;2023-04-15T02:25:12;7.10;99.90
13472;DHT22;6808;49.444;11.034;2023-04-15T02:27:38;7.10;99.90
13472;DHT22;6808;49.444;11.034;2023-04-15T02:30:04;7.10;99.90
13472;DHT22;6808;49.444;11.034;2023-04-15T02:32:30;7.10;99.90
13472;DHT22;6808;49.444;11.034;2023-04-15T02:34:55;7.10;99.90
13472;DHT22;6808;49.444;11.034;2023-04-15T02:37:21;7.10;99.90
13472;DHT22;6808;49.444;11.034;2023-04-15T02:39:47;7.10;99.90
13472;DHT22;6808;49.444;11.034;2023-04-15T02:42:13;7.10;99.90
13472;DHT22;6808;49.444;11.034;2023-04-15T02:44:38;7.10;99.90
13472;DHT22;6808;49.444;11.034;2023-04-15T02:47:04;7.10;99.90
13472;DHT22;6808;49.444;11.034;2023-04-15T02:49:31;7.00;99.90
13472;DHT22;6808;49.444;11.034;2023-04-15T02:51:57;7.10;99.90
13472;DHT22;6808;49.444;11.034;2023-04-15T02:54:24;7.10;99.90
13472;DHT22;6808;49.444;11.034;2023-04-15T02:56:50;7.00;99.90
13472;DHT22;6808;49.444;11.034;2023-04-15T02:59:19;7.10;99.90
13472;DHT22;6808;49.444;11.034;2023-04-15T03:01:45;7.00;99.90
13472;DHT22;6808;49.444;11.034;2023-04-15T03:04:10;7.00;99.90
13472;DHT22;6808;49.444;11.034;2023-04-15T03:06:36;7.00;99.90
13472;DHT22;6808;49.444;11.034;2023-04-15T03:09:01;7.00;99.90
13472;DHT22;6808;49.444;11.034;2023-04-15T03:11:31;7.00;99.90
13472;DHT22;6808;49.444;11.034;2023-04-15T03:13:57;7.00;99.90
13472;DHT22;6808;49.444;11.034;2023-04-15T03:16:23;7.00;99.90
13472;DHT22;6808;49.444;11.034;2023-04-15T03:18:49;7.00;99.90
13472;DHT22;6808;49.444;11.034;2023-04-15T03:21:14;7.00;99.90
13472;DHT22;6808;49.444;11.034;2023-04-15T03:23:40;7.00;99.90
13472;DHT22;6808;49.444;11.034;2023-04-15T03:26:05;6.90;99.90
13472;DHT22;6808;49.444;11.034;2023-04-15T03:28:31;7.00;99.90
13472;DHT22;6808;49.444;11.034;2023-04-15T03:30:57;7.00;99.90
13472;DHT22;6808;49.444;11.034;2023-04-15T03:33:23;7.00;99.90
13472;DHT22;6808;49.444;11.034;2023-04-15T03:35:50;7.00;99.90
13472;DHT22;6808;49.444;11.034;2023-04-15T03:38:16;7.00;99.90
13472;DHT22;6808;49.444;11.034;2023-04-15T03:40:42;7.00;99.90
13472;DHT22;6808;49.444;11.034;2023-04-15T03:43:07;7.00;99.90
13472;DHT22;6808;49.444;11.034;2023-04-15T03:45:33;7.00;99.90
13472;DHT22;6808;49.444;11.034;2023-04-15T03:47:58;6.90;99.90
13472;DHT22;6808;49.444;11.034;2023-04-15T03:50:24;6.90;99.90
13472;DHT22;6808;49.444;11.034;2023-04-15T03:52:49;6.90;99.90
13472;DHT22;6808;49.444;11.034;2023-04-15T03:55:15;6.90;99.90
13472;DHT22;6808;49.444;11.034;2023-04-15T03:57:41;6.90;99.90
13472;DHT22;6808;49.444;11.034;2023-04-15T04:00:07;6.90;99.90
13472;DHT22;6808;49.444;11.034;2023-04-15T04:02:36;6.90;99.90
13472;DHT22;6808;49.444;11.034;2023-04-15T04:05:02;6.90;99.90
13472;DHT22;6808;49.444;11.034;2023-04-15T04:07:28;6.90;99.90
13472;DHT22;6808;49.444;11.034;2023-04-15T04:09:55;6.90;99.90
13472;DHT22;6808;49.444;11.034;2023-04-15T04:12:21;6.90;99.90
13472;DHT22;6808;49.444;11.034;2023-04-15T04:14:46;6.90;99.90
13472;DHT22;6808;49.444;11.034;2023-04-15T04:17:12;6.90;99.90
13472;DHT22;6808;49.444;11.034;2023-04-15T04:19:38;7.00;99.90
13472;DHT22;6808;49.444;11.034;2023-04-15T04:22:03;7.00;99.90
13472;DHT22;6808;49.444;11.034;2023-04-15T04:24:29;7.00;99.90
13472;DHT22;6808;49.444;11.034;2023-04-15T04:26:55;7.00;99.90
13472;DHT22;6808;49.444;11.034;2023-04-15T04:29:21;7.00;99.90
13472;DHT22;6808;49.444;11.034;2023-04-15T04:31:47;7.00;99.90
13472;DHT22;6808;49.444;11.034;2023-04-15T04:34:13;7.00;99.90
13472;DHT22;6808;49.444;11.034;2023-04-15T04:36:38;6.90;99.90
13472;DHT22;6808;49.444;11.034;2023-04-15T04:39:04;6.90;99.90
13472;DHT22;6808;49.444;11.034;2023-04-15T04:41:29;6.90;99.90
13472;DHT22;6808;49.444;11.034;2023-04-15T04:43:55;6.90;99.90
13472;DHT22;6808;49.444;11.034;2023-04-15T04:46:20;6.90;99.90
13472;DHT22;6808;49.444;11.034;2023-04-15T04:48:46;6.90;99.90
13472;DHT22;6808;49.444;11.034;2023-04-15T04:51:11;6.90;99.90
13472;DHT22;6808;49.444;11.034;2023-04-15T04:53:37;6.90;99.90
13472;DHT22;6808;49.444;11.034;2023-04-15T04:56:03;6.90;99.90
13472;DHT22;6808;49.444;11.034;2023-04-15T04:58:29;6.90;99.90
13472;DHT22;6808;49.444;11.034;2023-04-15T05:00:55;6.90;99.90
13472;DHT22;6808;49.444;11.034;2023-04-15T05:03:21;6.90;99.90
13472;DHT22;6808;49.444;11.034;2023-04-15T05:05:46;6.90;99.90
13472;DHT22;6808;49.444;11.034;2023-04-15T05:08:14;6.90;99.90
13472;DHT22;6808;49.444;11.034;2023-04-15T05:10:39;6.90;99.90
13472;DHT22;6808;49.444;11.034;2023-04-15T05:13:05;6.90;99.90
13472;DHT22;6808;49.444;11.034;2023-04-15T05:15:30;6.90;99.90
13472;DHT22;6808;49.444;11.034;2023-04-15T05:17:57;7.00;99.90
13472;DHT22;6808;49.444;11.034;2023-04-15T05:20:23;7.00;99.90
13472;DHT22;6808;49.444;11.034;2023-04-15T05:22:49;7.00;99.90
13472;DHT22;6808;49.444;11.034;2023-04-15T05:25:15;6.90;99.90
13472;DHT22;6808;49.444;11.034;2023-04-15T05:27:40;6.90;99.90
13472;DHT22;6808;49.444;11.034;2023-04-15T05:30:06;7.00;99.90
13472;DHT22;6808;49.444;11.034;2023-04-15T05:32:33;7.00;99.90
13472;DHT22;6808;49.444;11.034;2023-04-15T05:35:01;7.00;99.90
13472;DHT22;6808;49.444;11.034;2023-04-15T05:37:26;7.10;99.90
13472;DHT22;6808;49.444;11.034;2023-04-15T05:39:52;7.10;99.90
13472;DHT22;6808;49.444;11.034;2023-04-15T05:42:17;7.10;99.90
13472;DHT22;6808;49.444;11.034;2023-04-15T05:44:52;7.10;99.90
13472;DHT22;6808;49.444;11.034;2023-04-15T05:47:17;7.10;99.90
13472;DHT22;6808;49.444;11.034;2023-04-15T05:49:43;7.20;99.90
13472;DHT22;6808;49.444;11.034;2023-04-15T05:52:08;7.20;99.90
13472;DHT22;6808;49.444;11.034;2023-04-15T05:54:34;7.20;99.90
13472;DHT22;6808;49.444;11.034;2023-04-15T05:57:19;7.30;99.90
13472;DHT22;6808;49.444;11.034;2023-04-15T05:59:45;7.20;99.90
13472;DHT22;6808;49.444;11.034;2023-04-15T06:02:10;7.30;99.90
13472;DHT22;6808;49.444;11.034;2023-04-15T06:04:36;7.20;99.90
13472;DHT22;6808;49.444;11.034;2023-04-15T06:07:02;7.20;99.90
13472;DHT22;6808;49.444;11.034;2023-04-15T06:09:27;7.30;99.90
13472;DHT22;6808;49.444;11.034;2023-04-15T06:11:55;7.40;99.90
13472;DHT22;6808;49.444;11.034;2023-04-15T06:14:22;7.30;99.90
13472;DHT22;6808;49.444;11.034;2023-04-15T06:16:47;7.40;99.90
13472;DHT22;6808;49.444;11.034;2023-04-15T06:19:13;7.30;99.90
13472;DHT22;6808;49.444;11.034;2023-04-15T06:21:39;7.40;99.90
13472;DHT22;6808;49.444;11.034;2023-04-15T06:24:04;7.40;99.90
13472;DHT22;6808;49.444;11.034;2023-04-15T06:26:30;7.40;99.90
13472;DHT22;6808;49.444;11.034;2023-04-15T06:28:56;7.40;99.90
13472;DHT22;6808;49.444;11.034;2023-04-15T06:31:22;7.50;99.90
13472;DHT22;6808;49.444;11.034;2023-04-15T06:33:47;7.50;99.90
13472;DHT22;6808;49.444;11.034;2023-04-15T06:36:13;7.50;99.90
13472;DHT22;6808;49.444;11.034;2023-04-15T06:38:38;7.50;99.90
13472;DHT22;6808;49.444;11.034;2023-04-15T06:41:04;7.50;99.90
13472;DHT22;6808;49.444;11.034;2023-04-15T06:43:30;7.60;99.90
13472;DHT22;6808;49.444;11.034;2023-04-15T06:45:55;7.60;99.90
13472;DHT22;6808;49.444;11.034;2023-04-15T06:48:21;7.70;99.90
13472;DHT22;6808;49.444;11.034;2023-04-15T06:50:48;7.70;99.90
13472;DHT22;6808;49.444;11.034;2023-04-15T06:53:14;7.70;99.90
13472;DHT22;6808;49.444;11.034;2023-04-15T06:55:40;7.70;99.90
13472;DHT22;6808;49.444;11.034;2023-04-15T06:58:06;7.70;99.90
13472;DHT22;6808;49.444;11.034;2023-04-15T07:00:32;7.80;99.90
13472;DHT22;6808;49.444;11.034;2023-04-15T07:02:58;7.80;99.90
13472;DHT22;6808;49.444;11.034;2023-04-15T07:05:27;7.80;99.90
13472;DHT22;6808;49.444;11.034;2023-04-15T07:07:52;7.80;99.90
13472;DHT22;6808;49.444;11.034;2023-04-15T07:10:18;7.80;99.90
13472;DHT22;6808;49.444;11.034;2023-04-15T07:12:43;7.80;99.90
13472;DHT22;6808;49.444;11.034;2023-04-15T07:15:09;7.80;99.90
13472;DHT22;6808;49.444;11.034;2023-04-15T07:17:35;7.90;99.90
13472;DHT22;6808;49.444;11.034;2023-04-15T07:20:01;8.00;99.90
13472;DHT22;6808;49.444;11.034;2023-04-15T07:22:27;8.00;99.90
13472;DHT22;6808;49.444;11.034;2023-04-15T07:24:52;8.10;99.90
13472;DHT22;6808;49.444;11.034;2023-04-15T07:27:19;8.10;99.90
13472;DHT22;6808;49.444;11.034;2023-04-15T07:29:45;8.20;99.90
13472;DHT22;6808;49.444;11.034;2023-04-15T07:32:11;8.30;99.90
13472;DHT22;6808;49.444;11.034;2023-04-15T07:34:49;8.30;99.90
13472;DHT22;6808;49.444;11.034;2023-04-15T07:37:15;8.30;99.90
13472;DHT22;6808;49.444;11.034;2023-04-15T07:39:40;8.40;99.90
13472;DHT22;6808;49.444;11.034;2023-04-15T07:42:09;8.40;99.90
13472;DHT22;6808;49.444;11.034;2023-04-15T07:44:35;8.50;99.90
13472;DHT22;6808;49.444;11.034;2023-04-15T07:47:01;8.50;99.90
13472;DHT22;6808;49.444;11.034;2023-04-15T07:49:27;8.60;99.90
13472;DHT22;6808;49.444;11.034;2023-04-15T07:51:53;8.50;99.90
13472;DHT22;6808;49.444;11.034;2023-04-15T07:54:20;8.60;99.90
13472;DHT22;6808;49.444;11.034;2023-04-15T07:56:47;8.60;99.90
13472;DHT22;6808;49.444;11.034;2023-04-15T07:59:14;8.50;99.90
13472;DHT22;6808;49.444;11.034;2023-04-15T08:01:48;8.60;99.90
13472;DHT22;6808;49.444;11.034;2023-04-15T08:04:14;8.60;99.90
13472;DHT22;6808;49.444;11.034;2023-04-15T08:06:40;8.60;99.90
13472;DHT22;6808;49.444;11.034;2023-04-15T08:09:11;8.60;99.90
13472;DHT22;6808;49.444;11.034;2023-04-15T08:11:50;8.60;99.90
13472;DHT22;6808;49.444;11.034;2023-04-15T08:14:16;8.60;99.90
13472;DHT22;6808;49.444;11.034;2023-04-15T08:16:41;8.70;99.90
13472;DHT22;6808;49.444;11.034;2023-04-15T08:19:07;8.90;99.90
13472;DHT22;6808;49.444;11.034;2023-04-15T08:21:40;8.60;99.90
13472;DHT22;6808;49.444;11.034;2023-04-15T08:24:07;8.70;99.90
13472;DHT22;6808;49.444;11.034;2023-04-15T08:26:33;8.60;99.90
13472;DHT22;6808;49.444;11.034;2023-04-15T08:29:10;8.60;99.90
13472;DHT22;6808;49.444;11.034;2023-04-15T08:31:43;8.60;99.90
13472;DHT22;6808;49.444;11.034;2023-04-15T08:34:10;8.50;99.90
13472;DHT22;6808;49.444;11.034;2023-04-15T08:36:36;8.40;99.90
13472;DHT22;6808;49.444;11.034;2023-04-15T08:39:01;8.40;99.90
13472;DHT22;6808;49.444;11.034;2023-04-15T08:41:51;8.60;99.90
13472;DHT22;6808;49.444;11.034;2023-04-15T08:44:22;8.30;99.90
13472;DHT22;6808;49.444;11.034;2023-04-15T08:46:48;8.30;99.90
13472;DHT22;6808;49.444;11.034;2023-04-15T08:49:14;8.30;99.90
13472;DHT22;6808;49.444;11.034;2023-04-15T08:51:41;8.30;99.90
13472;DHT22;6808;49.444;11.034;2023-04-15T08:54:08;8.30;99.90
13472;DHT22;6808;49.444;11.034;2023-04-15T08:56:34;8.30;99.90
13472;DHT22;6808;49.444;11.034;2023-04-15T08:59:04;8.30;99.90
13472;DHT22;6808;49.444;11.034;2023-04-15T09:01:31;8.40;99.90
13472;DHT22;6808;49.444;11.034;2023-04-15T09:03:58;8.30;99.90
13472;DHT22;6808;49.444;11.034;2023-04-15T09:06:25;8.30;99.90
13472;DHT22;6808;49.444;11.034;2023-04-15T09:08:51;8.40;99.90
13472;DHT22;6808;49.444;11.034;2023-04-15T09:11:21;8.30;99.90
13472;DHT22;6808;49.444;11.034;2023-04-15T09:13:47;8.30;99.90
13472;DHT22;6808;49.444;11.034;2023-04-15T09:16:13;8.30;99.90
13472;DHT22;6808;49.444;11.034;2023-04-15T09:18:38;8.30;99.90
13472;DHT22;6808;49.444;11.034;2023-04-15T09:21:09;8.30;99.90
13472;DHT22;6808;49.444;11.034;2023-04-15T09:23:37;8.40;99.90
13472;DHT22;6808;49.444;11.034;2023-04-15T09:26:03;8.30;99.90
13472;DHT22;6808;49.444;11.034;2023-04-15T09:28:30;8.30;99.90
13472;DHT22;6808;49.444;11.034;2023-04-15T09:31:00;8.40;99.90
13472;DHT22;6808;49.444;11.034;2023-04-15T09:33:28;8.40;99.90
13472;DHT22;6808;49.444;11.034;2023-04-15T09:36:04;8.40;99.90
13472;DHT22;6808;49.444;11.034;2023-04-15T09:38:30;8.40;99.90
13472;DHT22;6808;49.444;11.034;2023-04-15T09:40:57;8.40;99.90
13472;DHT22;6808;49.444;11.034;2023-04-15T09:43:39;8.50;99.90
13472;DHT22;6808;49.444;11.034;2023-04-15T09:46:05;8.50;99.90
13472;DHT22;6808;49.444;11.034;2023-04-15T09:48:30;8.60;99.90
13472;DHT22;6808;49.444;11.034;2023-04-15T09:51:00;8.60;99.90
13472;DHT22;6808;49.444;11.034;2023-04-15T09:53:26;8.50;99.90
13472;DHT22;6808;49.444;11.034;2023-04-15T09:55:57;8.60;99.90
13472;DHT22;6808;49.444;11.034;2023-04-15T09:58:32;8.60;99.90
13472;DHT22;6808;49.444;11.034;2023-04-15T10:01:02;8.50;99.90
13472;DHT22;6808;49.444;11.034;2023-04-15T10:03:30;8.50;99.90
13472;DHT22;6808;49.444;11.034;2023-04-15T10:05:58;8.40;99.90
13472;DHT22;6808;49.444;11.034;2023-04-15T10:08:26;8.40;99.90
13472;DHT22;6808;49.444;11.034;2023-04-15T10:10:52;8.40;99.90
13472;DHT22;6808;49.444;11.034;2023-04-15T10:13:23;8.40;99.90
13472;DHT22;6808;49.444;11.034;2023-04-15T10:15:55;8.40;99.90
13472;DHT22;6808;49.444;11.034;2023-04-15T10:18:24;8.40;99.90
13472;DHT22;6808;49.444;11.034;2023-04-15T10:20:50;8.40;99.90
13472;DHT22;6808;49.444;11.034;2023-04-15T10:23:17;8.40;99.90
13472;DHT22;6808;49.444;11.034;2023-04-15T10:25:44;8.40;99.90
13472;DHT22;6808;49.444;11.034;2023-04-15T10:28:10;8.40;99.90
13472;DHT22;6808;49.444;11.034;2023-04-15T10:30:36;8.40;99.90
13472;DHT22;6808;49.444;11.034;2023-04-15T10:33:03;8.30;99.90
13472;DHT22;6808;49.444;11.034;2023-04-15T10:35:31;8.20;99.90
13472;DHT22;6808;49.444;11.034;2023-04-15T10:37:57;8.20;99.90
13472;DHT22;6808;49.444;11.034;2023-04-15T10:40:29;8.20;99.90
13472;DHT22;6808;49.444;11.034;2023-04-15T10:42:59;8.10;99.90
13472;DHT22;6808;49.444;11.034;2023-04-15T10:45:27;8.10;99.90
13472;DHT22;6808;49.444;11.034;2023-04-15T10:47:57;8.00;99.90
13472;DHT22;6808;49.444;11.034;2023-04-15T10:50:25;8.00;99.90
13472;DHT22;6808;49.444;11.034;2023-04-15T10:52:51;8.00;99.90
13472;DHT22;6808;49.444;11.034;2023-04-15T10:55:22;8.00;99.90
13472;DHT22;6808;49.444;11.034;2023-04-15T10:57:52;8.00;99.90
13472;DHT22;6808;49.444;11.034;2023-04-15T11:00:19;8.00;99.90
13472;DHT22;6808;49.444;11.034;2023-04-15T11:02:54;8.10;99.90
13472;DHT22;6808;49.444;11.034;2023-04-15T11:05:49;8.20;99.90
13472;DHT22;6808;49.444;11.034;2023-04-15T11:08:15;8.20;99.90
13472;DHT22;6808;49.444;11.034;2023-04-15T11:15:39;8.30;99.90
13472;DHT22;6808;49.444;11.034;2023-04-15T11:18:15;8.40;99.90
13472;DHT22;6808;49.444;11.034;2023-04-15T11:20:43;8.60;99.90
13472;DHT22;6808;49.444;11.034;2023-04-15T11:23:09;8.60;99.90
13472;DHT22;6808;49.444;11.034;2023-04-15T11:25:35;8.60;99.90
13472;DHT22;6808;49.444;11.034;2023-04-15T11:28:05;8.60;99.90
13472;DHT22;6808;49.444;11.034;2023-04-15T11:30:41;8.50;99.90
13472;DHT22;6808;49.444;11.034;2023-04-15T11:33:09;8.50;99.90
13472;DHT22;6808;49.444;11.034;2023-04-15T11:35:37;8.50;99.90
13472;DHT22;6808;49.444;11.034;2023-04-15T11:38:10;8.40;99.90
13472;DHT22;6808;49.444;11.034;2023-04-15T11:40:40;8.40;99.90
13472;DHT22;6808;49.444;11.034;2023-04-15T11:43:17;8.30;99.90
13472;DHT22;6808;49.444;11.034;2023-04-15T11:45:53;8.30;99.90
13472;DHT22;6808;49.444;11.034;2023-04-15T11:48:26;8.30;99.90
13472;DHT22;6808;49.444;11.034;2023-04-15T11:51:08;8.30;99.90
13472;DHT22;6808;49.444;11.034;2023-04-15T11:53:49;8.30;99.90
13472;DHT22;6808;49.444;11.034;2023-04-15T11:56:18;8.40;99.90
13472;DHT22;6808;49.444;11.034;2023-04-15T11:58:58;8.40;99.90
13472;DHT22;6808;49.444;11.034;2023-04-15T12:01:44;8.30;99.90
13472;DHT22;6808;49.444;11.034;2023-04-15T12:04:13;8.40;99.90
13472;DHT22;6808;49.444;11.034;2023-04-15T12:06:39;8.50;99.90
13472;DHT22;6808;49.444;11.034;2023-04-15T12:09:25;8.60;99.90
13472;DHT22;6808;49.444;11.034;2023-04-15T12:11:51;8.70;99.90
13472;DHT22;6808;49.444;11.034;2023-04-15T12:14:31;8.70;99.90
13472;DHT22;6808;49.444;11.034;2023-04-15T12:16:58;8.70;99.90
13472;DHT22;6808;49.444;11.034;2023-04-15T12:19:40;8.70;99.90
13472;DHT22;6808;49.444;11.034;2023-04-15T12:22:16;8.70;99.90
13472;DHT22;6808;49.444;11.034;2023-04-15T12:24:43;9.00;99.90
13472;DHT22;6808;49.444;11.034;2023-04-15T12:27:12;8.60;99.90
13472;DHT22;6808;49.444;11.034;2023-04-15T12:29:40;8.50;99.90
13472;DHT22;6808;49.444;11.034;2023-04-15T12:32:11;8.50;99.90
13472;DHT22;6808;49.444;11.034;2023-04-15T12:34:59;8.60;99.90
13472;DHT22;6808;49.444;11.034;2023-04-15T12:37:25;8.50;99.90
13472;DHT22;6808;49.444;11.034;2023-04-15T12:39:50;8.60;99.90
13472;DHT22;6808;49.444;11.034;2023-04-15T12:42:17;8.60;99.90
13472;DHT22;6808;49.444;11.034;2023-04-15T12:44:42;8.60;99.90
13472;DHT22;6808;49.444;11.034;2023-04-15T12:47:09;8.70;99.90
13472;DHT22;6808;49.444;11.034;2023-04-15T12:49:35;8.70;99.90
13472;DHT22;6808;49.444;11.034;2023-04-15T12:52:01;8.70;99.90
13472;DHT22;6808;49.444;11.034;2023-04-15T12:54:28;8.60;99.90
13472;DHT22;6808;49.444;11.034;2023-04-15T12:56:54;8.60;99.90
13472;DHT22;6808;49.444;11.034;2023-04-15T12:59:20;8.60;99.90
13472;DHT22;6808;49.444;11.034;2023-04-15T13:01:47;8.70;99.90
13472;DHT22;6808;49.444;11.034;2023-04-15T13:04:13;8.70;99.90
13472;DHT22;6808;49.444;11.034;2023-04-15T13:06:39;8.70;99.90
13472;DHT22;6808;49.444;11.034;2023-04-15T13:09:04;8.70;99.90
13472;DHT22;6808;49.444;11.034;2023-04-15T13:11:30;8.80;99.90
13472;DHT22;6808;49.444;11.034;2023-04-15T13:14:02;8.80;99.90
13472;DHT22;6808;49.444;11.034;2023-04-15T13:16:28;8.80;99.90
13472;DHT22;6808;49.444;11.034;2023-04-15T13:18:54;8.80;99.90
13472;DHT22;6808;49.444;11.034;2023-04-15T13:21:19;8.80;99.90
13472;DHT22;6808;49.444;11.034;2023-04-15T13:23:45;8.70;99.90
13472;DHT22;6808;49.444;11.034;2023-04-15T13:26:11;8.80;99.90
13472;DHT22;6808;49.444;11.034;2023-04-15T13:28:37;8.80;99.90
13472;DHT22;6808;49.444;11.034;2023-04-15T13:31:04;8.80;99.90
13472;DHT22;6808;49.444;11.034;2023-04-15T13:33:30;8.80;99.90
13472;DHT22;6808;49.444;11.034;2023-04-15T13:35:55;8.80;99.90
13472;DHT22;6808;49.444;11.034;2023-04-15T13:38:22;8.90;99.90
13472;DHT22;6808;49.444;11.034;2023-04-15T13:40:48;8.90;99.90
13472;DHT22;6808;49.444;11.034;2023-04-15T13:43:14;8.90;99.90
13472;DHT22;6808;49.444;11.034;2023-04-15T13:45:39;8.90;99.90
13472;DHT22;6808;49.444;11.034;2023-04-15T13:48:05;8.90;99.90
13472;DHT22;6808;49.444;11.034;2023-04-15T13:50:31;8.90;99.90
13472;DHT22;6808;49.444;11.034;2023-04-15T13:52:56;8.90;99.90
13472;DHT22;6808;49.444;11.034;2023-04-15T13:55:22;8.90;99.90
13472;DHT22;6808;49.444;11.034;2023-04-15T13:57:48;8.90;99.90
13472;DHT22;6808;49.444;11.034;2023-04-15T14:00:15;8.90;99.90
13472;DHT22;6808;49.444;11.034;2023-04-15T14:02:40;8.90;99.90
13472;DHT22;6808;49.444;11.034;2023-04-15T14:05:07;8.80;99.90
13472;DHT22;6808;49.444;11.034;2023-04-15T14:07:33;8.80;99.90
13472;DHT22;6808;49.444;11.034;2023-04-15T14:09:59;8.80;99.90
13472;DHT22;6808;49.444;11.034;2023-04-15T14:12:25;8.80;99.90
13472;DHT22;6808;49.444;11.034;2023-04-15T14:14:50;8.80;99.90
13472;DHT22;6808;49.444;11.034;2023-04-15T14:17:16;8.80;99.90
13472;DHT22;6808;49.444;11.034;2023-04-15T14:19:41;8.90;99.90
13472;DHT22;6808;49.444;11.034;2023-04-15T14:22:07;8.90;99.90
13472;DHT22;6808;49.444;11.034;2023-04-15T14:24:33;9.00;99.90
13472;DHT22;6808;49.444;11.034;2023-04-15T14:26:58;8.90;99.90
13472;DHT22;6808;49.444;11.034;2023-04-15T14:29:24;8.90;99.90
13472;DHT22;6808;49.444;11.034;2023-04-15T14:31:49;8.90;99.90
13472;DHT22;6808;49.444;11.034;2023-04-15T14:34:18;8.90;99.90
13472;DHT22;6808;49.444;11.034;2023-04-15T14:36:43;8.80;99.90
13472;DHT22;6808;49.444;11.034;2023-04-15T14:39:10;8.80;99.90
13472;DHT22;6808;49.444;11.034;2023-04-15T14:41:35;8.70;99.90
13472;DHT22;6808;49.444;11.034;2023-04-15T14:44:02;8.60;99.90
13472;DHT22;6808;49.444;11.034;2023-04-15T14:46:27;8.60;99.90
13472;DHT22;6808;49.444;11.034;2023-04-15T14:48:53;8.60;99.90
13472;DHT22;6808;49.444;11.034;2023-04-15T14:51:19;8.60;99.90
13472;DHT22;6808;49.444;11.034;2023-04-15T14:53:45;8.70;99.90
13472;DHT22;6808;49.444;11.034;2023-04-15T14:56:10;8.70;99.90
13472;DHT22;6808;49.444;11.034;2023-04-15T14:58:36;8.60;99.90
13472;DHT22;6808;49.444;11.034;2023-04-15T15:01:03;8.70;99.90
13472;DHT22;6808;49.444;11.034;2023-04-15T15:03:29;8.70;99.90
13472;DHT22;6808;49.444;11.034;2023-04-15T15:05:54;8.80;99.90
13472;DHT22;6808;49.444;11.034;2023-04-15T15:08:21;8.70;99.90
13472;DHT22;6808;49.444;11.034;2023-04-15T15:10:47;8.70;99.90
13472;DHT22;6808;49.444;11.034;2023-04-15T15:13:13;8.80;99.90
13472;DHT22;6808;49.444;11.034;2023-04-15T15:15:38;8.70;99.90
13472;DHT22;6808;49.444;11.034;2023-04-15T15:18:04;8.70;99.90
13472;DHT22;6808;49.444;11.034;2023-04-15T15:20:30;8.70;99.90
13472;DHT22;6808;49.444;11.034;2023-04-15T15:22:56;8.70;99.90
13472;DHT22;6808;49.444;11.034;2023-04-15T15:25:21;8.70;99.90
13472;DHT22;6808;49.444;11.034;2023-04-15T15:27:47;8.60;99.90
13472;DHT22;6808;49.444;11.034;2023-04-15T15:30:13;8.60;99.90
13472;DHT22;6808;49.444;11.034;2023-04-15T15:32:40;8.60;99.90
13472;DHT22;6808;49.444;11.034;2023-04-15T15:35:06;8.60;99.90
13472;DHT22;6808;49.444;11.034;2023-04-15T15:37:33;8.60;99.90
13472;DHT22;6808;49.444;11.034;2023-04-15T15:39:59;8.60;99.90
13472;DHT22;6808;49.444;11.034;2023-04-15T15:42:25;8.60;99.90
13472;DHT22;6808;49.444;11.034;2023-04-15T15:44:50;8.50;99.90
13472;DHT22;6808;49.444;11.034;2023-04-15T15:47:17;8.50;99.90
13472;DHT22;6808;49.444;11.034;2023-04-15T15:49:43;8.50;99.90